Cragford, AL (36255)

8:35 AM CST on January 26, 2015 (GMT -0600)
Pinewood Retreat | Change Station
CLOSE
Current Station
Personal Weather Station
Location: Lineville, AL
Elevation: 812 ft
Nearby Weather Stations

Elev 812 ft 33.32 °N, 85.59 °W | Updated 3 seconds ago

Overcast
Overcast
42.4 °F
Feels Like 42 °F
N
2.0
Wind Variable Wind from WNW
Gusts 6.0 mph

Today
High -- | Low -- °F
--% Chance of Precip.
Yesterday
High -- | Low -- °F
Precip. -- in
6:42 AM 5:08 PM
Waxing Crescent, 43% visible
Pressure 29.92 in
Visibility 10.0 miles
Clouds Mostly Cloudy 1900 ft
Overcast 2700 ft
Windchill 42 °F
Dew Point 39 °F
Humidity 87%
Rainfall 0.00 in
Snow Depth Not available.
UV 0 out of 12
Pollen 1.60 out of 12
Air Quality Not available.
Flu Activity Not available.
METAR KALX 261415Z AUTO 29009KT 250V310 10SM BKN019 OVC027 08/03 A2992 RMK AO2 T00810034

More Conditions Fewer Conditions

Pressure 29.92 in
Visibility 10.0 miles
Clouds Mostly Cloudy 1900 ft
Overcast 2700 ft
Windchill 42 °F
Dew Point 39 °F
Humidity 87%
Rainfall 0.00 in
Snow Depth Not available.
UV 0 out of 12
Pollen 1.60 out of 12
Air Quality Not available.
Flu Activity Not available.
METAR KALX 261415Z AUTO 29009KT 250V310 10SM BKN019 OVC027 08/03 A2992 RMK AO2 T00810034

More Conditions Fewer Conditions

10-Day Weather Forecast

Almanac

Astronomy

Jan. 26, 2015 Rise Set
Actual Time
Civil Twilight
Nautical Twilight
Astronomical Twilight
Moon
Length of Visible Light
Length of Day
Tomorrow will be .
, % of the Moon is Illuminated

Today's Extremes

State Highs State Lows

Community

WunderPhotos

Upload Photos

1,790,226 photos uploaded!

WunderBlogs® & News

Nearby

Air Quality

  Air Quality AQ Index Pollutant
Not available.

Snow Depth

Station Depth Elevation

Earthquake Activity

City Distance Mag. Time & Date
Minimum magnitude displayed is 2.5.

Coastal Water Temperatures

Place Temperature

Nearby Weather Stations